Lyndonville, New York
Current Conditions -  °F | °C
As of 3:54 PM on Saturday 20 Dec 2014 (Local Time) from KBUF Reporting Station
Broken Clouds Broken Clouds  
Wind Chill: 22°   Ceiling: 2400
Heat Index: 30°   Visibility: 10mi
Dew Point: 22°   Wind: 8mph
Humidity: 72%   Direction: 220°SW
Pressure: 30.24"   Gusts: NA
Location:  43.33°N, 78.39°W
Report Text: KBUF 202054Z 22007KT 10SM BKN024 BKN200 BKN250 M01/M06 A3024 RMK AO2 SLP251 T10111056 53001
Loading
Personal Weather Stations






























Interactive Weather Map New forecast layout! Learn more

10-Day Weather Forecast

Advertisements
Track Severe Weather on mobile